Kezdőlap
METAR-TAF:

METAR-TAF

Repülőterek :

Makkovik, Újfundland és Labrador, Kanada

földrajzi szélesség: 55-05N, földrajzi hosszúság: 059-11W, magasság: 71 m

Jelenlegi meteorológiai megfigyelések

A jelentés 51 perccel ezelõtt készült, 12:00 UTC
Szélcsend
Hőmérséklet 2°C
Páratartalom 87%
Légköri nyomás 1000 hPa
Látótávolság: 24.1 km
Szórványos felhőzet 2000 lábon
Szakadozott felhőzet 8000 lábon

METAR: CYFT 221200Z 00000KT 15SM SCT020 BKN080 02/00 A2954 RMK SC3AC2 SLP009

Idő: 09:51 (12:51 UTC)


TAF: hiányzik

Meteorológiai megfigyelések és előrejelzések több, mint 4000 repülőtéren (METAR és TAF jelentéseket).

A térképen piros és sárga pontok jelzik az elérhető meteorológiai állomásokat.

Mozgassa az egeret a pont fölött, hogy megjelenjen az állomás neve.

Azután kattintson az időjárási megfigyelések és előrejelzések megtekintéséhez.

A térkép megváltoztatása: kattintson a fekete keresztel jelölt zöld gombra ráközelítéshez, a vonallal jelölt zöld gombra távolításhoz, vagy a zöld nyilakra a szomszédos térképek eléréséhez.


METAR-TAF: